Time;durP1;ratioP1;P1;durP2;ratioP2;P2;SDS_P1;SDS_P2;PMS_P1;PMS_P2;Temp;Humidity;BMP_temperature;BMP_pressure;BME280_temperature;BME280_humidity;BME280_pressure;Samples;Min_cycle;Max_cycle;Signal;HPM_P1;HPM_P2
2022/03/29 00:02:03;;;;;;;62.35;40.55;;;;;;;;;;5073158;28;20024;-66
2022/03/29 00:04:29;;;;;;;66.75;41.03;;;;;;;;;;5055588;28;20059;-66
2022/03/29 00:06:56;;;;;;;64.03;37.97;;;;;;;;;;5055204;28;20024;-66
2022/03/29 00:09:23;;;;;;;67.97;38.35;;;;;;;;;;5055127;28;20518;-67
2022/03/29 00:11:49;;;;;;;73.10;40.28;;;;;;;;;;5073148;28;20387;-67
2022/03/29 00:14:15;;;;;;;65.90;36.90;;;;;;;;;;5073067;28;20063;-66
2022/03/29 00:16:42;;;;;;;59.85;34.10;;;;;;;;;;5072892;28;20039;-67
2022/03/29 00:19:08;;;;;;;57.60;35.90;;;;;;;;;;5051872;28;20024;-67
2022/03/29 00:21:35;;;;;;;58.17;36.88;;;;;;;;;;5072379;28;20146;-67
2022/03/29 00:24:02;;;;;;;62.95;37.50;;;;;;;;;;5055006;28;20482;-67
2022/03/29 00:26:29;;;;;;;57.38;33.17;;;;;;;;;;5069387;28;20016;-68
2022/03/29 00:28:55;;;;;;;61.00;32.83;;;;;;;;;;5066719;28;20104;-68
2022/03/29 00:31:21;;;;;;;56.78;35.88;;;;;;;;;;5069202;28;20025;-67
2022/03/29 00:33:48;;;;;;;55.83;34.20;;;;;;;;;;5069424;28;20020;-67
2022/03/29 00:36:15;;;;;;;57.53;33.88;;;;;;;;;;5054209;28;20021;-67
2022/03/29 00:38:42;;;;;;;49.17;32.28;;;;;;;;;;5068333;28;20408;-67
2022/03/29 00:41:08;;;;;;;55.28;33.42;;;;;;;;;;5068052;28;20021;-67
2022/03/29 00:43:35;;;;;;;52.42;32.45;;;;;;;;;;5054708;28;20148;-67
2022/03/29 00:46:02;;;;;;;50.78;33.40;;;;;;;;;;5054167;28;20026;-67
2022/03/29 00:48:28;;;;;;;51.75;32.95;;;;;;;;;;5050551;28;20024;-67
2022/03/29 00:50:55;;;;;;;53.40;29.63;;;;;;;;;;5062539;28;20552;-66
2022/03/29 00:53:24;;;;;;;54.60;31.33;;;;;;;;;;5060705;28;20028;-66
2022/03/29 00:55:54;;;;;;;56.00;31.27;;;;;;;;;;5059409;28;20024;-66
2022/03/29 00:58:21;;;;;;;49.53;28.70;;;;;;;;;;5055161;28;20029;-66
2022/03/29 01:00:48;;;;;;;47.72;26.42;;;;;;;;;;5067179;28;20029;-66
2022/03/29 01:03:15;;;;;;;54.45;30.45;;;;;;;;;;5063440;28;20028;-67
2022/03/29 01:05:42;;;;;;;43.63;27.95;;;;;;;;;;5063745;28;20415;-67
2022/03/29 01:08:09;;;;;;;48.00;24.17;;;;;;;;;;5051109;28;20146;-66
2022/03/29 01:10:35;;;;;;;39.78;25.10;;;;;;;;;;5049364;28;20024;-66
2022/03/29 01:13:01;;;;;;;48.88;24.35;;;;;;;;;;5056128;28;20061;-66
2022/03/29 01:15:30;;;;;;;41.67;24.55;;;;;;;;;;5048195;28;20468;-67
2022/03/29 01:17:57;;;;;;;42.60;24.10;;;;;;;;;;5048770;28;20037;-67
2022/03/29 01:20:27;;;;;;;41.60;23.88;;;;;;;;;;5032913;28;20047;-67
2022/03/29 01:22:55;;;;;;;44.30;25.08;;;;;;;;;;5050731;28;20013;-67
2022/03/29 01:25:26;;;;;;;43.35;23.40;;;;;;;;;;5046808;28;20465;-69
2022/03/29 01:27:53;;;;;;;43.60;21.98;;;;;;;;;;5013224;28;20036;-66
2022/03/29 01:30:21;;;;;;;42.92;21.27;;;;;;;;;;5047838;28;20485;-66
2022/03/29 01:32:49;;;;;;;37.20;19.73;;;;;;;;;;5048653;28;20025;-68
2022/03/29 01:35:21;;;;;;;41.90;21.13;;;;;;;;;;5033003;28;20064;-67
2022/03/29 01:37:48;;;;;;;40.22;23.77;;;;;;;;;;5032930;28;20021;-66
2022/03/29 01:40:16;;;;;;;43.83;21.73;;;;;;;;;;5045830;28;20100;-66
2022/03/29 01:42:49;;;;;;;43.30;23.13;;;;;;;;;;5032597;28;20025;-66
2022/03/29 01:45:16;;;;;;;47.20;21.95;;;;;;;;;;5020143;28;20026;-69
2022/03/29 01:47:42;;;;;;;36.60;20.35;;;;;;;;;;5019824;28;20025;-66
2022/03/29 01:50:09;;;;;;;47.55;21.13;;;;;;;;;;5051114;28;20032;-69
2022/03/29 01:52:40;;;;;;;36.88;18.67;;;;;;;;;;5050531;28;20033;-68
2022/03/29 01:55:07;;;;;;;36.97;19.52;;;;;;;;;;5038767;28;20026;-67
2022/03/29 01:57:33;;;;;;;42.25;19.80;;;;;;;;;;5041954;28;20060;-67
2022/03/29 02:02:44;;;;;;;37.25;18.33;;;;;;;;;;5048003;28;20036;-69
2022/03/29 02:05:11;;;;;;;33.35;17.35;;;;;;;;;;5048239;28;20025;-66
2022/03/29 02:07:37;;;;;;;34.38;20.95;;;;;;;;;;5049483;28;20548;-69
2022/03/29 02:10:05;;;;;;;41.10;20.20;;;;;;;;;;5053628;28;20511;-67
2022/03/29 02:12:33;;;;;;;41.42;20.48;;;;;;;;;;5037719;28;20380;-66
2022/03/29 02:14:59;;;;;;;35.22;18.50;;;;;;;;;;5044546;28;20073;-68
2022/03/29 02:17:26;;;;;;;36.17;17.35;;;;;;;;;;5037892;28;20025;-67
2022/03/29 02:19:52;;;;;;;32.83;15.02;;;;;;;;;;5049841;28;20112;-68
2022/03/29 02:22:18;;;;;;;31.45;15.48;;;;;;;;;;5054172;28;20032;-68
2022/03/29 02:24:44;;;;;;;27.70;14.65;;;;;;;;;;5047294;28;20036;-69
2022/03/29 02:27:11;;;;;;;33.85;16.23;;;;;;;;;;5058116;28;20017;-70
2022/03/29 02:29:37;;;;;;;29.88;16.55;;;;;;;;;;5056886;28;20375;-69
2022/03/29 02:32:03;;;;;;;30.27;17.27;;;;;;;;;;5035402;28;20102;-69
2022/03/29 02:34:30;;;;;;;35.85;16.23;;;;;;;;;;5049470;28;20031;-69
2022/03/29 02:36:56;;;;;;;35.22;16.38;;;;;;;;;;5049356;28;20029;-68
2022/03/29 02:39:22;;;;;;;35.20;17.15;;;;;;;;;;5055740;28;20028;-69
2022/03/29 02:41:48;;;;;;;35.65;17.73;;;;;;;;;;5052773;28;20115;-69
2022/03/29 02:44:15;;;;;;;35.03;17.52;;;;;;;;;;5052354;28;20025;-69
2022/03/29 02:46:41;;;;;;;41.17;17.58;;;;;;;;;;5032480;28;20029;-68
2022/03/29 02:49:29;;;;;;;40.45;18.02;;;;;;;;;;5025475;28;20118;-68
2022/03/29 02:51:55;;;;;;;32.90;18.52;;;;;;;;;;5031884;28;20026;-69
2022/03/29 02:54:21;;;;;;;38.40;18.65;;;;;;;;;;5028417;28;20028;-68
2022/03/29 02:56:48;;;;;;;38.13;18.92;;;;;;;;;;5040626;28;20540;-68
2022/03/29 02:59:15;;;;;;;30.17;15.80;;;;;;;;;;5050534;28;20025;-68
2022/03/29 03:01:41;;;;;;;33.15;13.02;;;;;;;;;;5044679;28;20053;-69
2022/03/29 03:04:07;;;;;;;25.27;12.75;;;;;;;;;;5030408;28;20025;-70
2022/03/29 03:06:34;;;;;;;27.27;11.65;;;;;;;;;;5024378;28;20031;-69
2022/03/29 03:09:02;;;;;;;17.85;9.85;;;;;;;;;;5029947;28;20129;-69
2022/03/29 03:11:28;;;;;;;17.65;10.50;;;;;;;;;;5027466;28;20385;-69
2022/03/29 03:13:55;;;;;;;17.40;10.25;;;;;;;;;;5059200;28;20064;-68
2022/03/29 03:16:21;;;;;;;21.88;10.93;;;;;;;;;;5065997;28;20032;-69
2022/03/29 03:18:47;;;;;;;29.38;12.45;;;;;;;;;;5064830;28;20108;-69
2022/03/29 03:21:14;;;;;;;19.70;10.57;;;;;;;;;;5060755;28;20025;-69
2022/03/29 03:23:40;;;;;;;20.05;8.98;;;;;;;;;;5055271;28;20082;-69
2022/03/29 03:26:07;;;;;;;18.02;8.95;;;;;;;;;;5066845;28;20029;-69
2022/03/29 03:28:34;;;;;;;23.25;9.48;;;;;;;;;;5068356;28;20025;-69
2022/03/29 03:31:00;;;;;;;23.00;9.07;;;;;;;;;;5073780;28;20036;-69
2022/03/29 03:33:26;;;;;;;19.08;8.05;;;;;;;;;;5063408;28;20081;-70
2022/03/29 03:35:52;;;;;;;17.92;8.27;;;;;;;;;;5070390;28;20528;-69
2022/03/29 03:38:19;;;;;;;15.50;7.88;;;;;;;;;;5063698;28;20545;-69
2022/03/29 03:40:45;;;;;;;19.77;8.45;;;;;;;;;;5060668;28;20028;-69
2022/03/29 03:43:11;;;;;;;21.60;7.38;;;;;;;;;;5065150;28;20028;-69
2022/03/29 03:45:38;;;;;;;18.92;8.13;;;;;;;;;;5071462;28;20035;-69
2022/03/29 03:48:04;;;;;;;14.60;7.60;;;;;;;;;;5065714;28;20028;-69
2022/03/29 03:50:31;;;;;;;30.95;9.98;;;;;;;;;;5066044;28;20024;-70
2022/03/29 03:52:57;;;;;;;18.77;9.60;;;;;;;;;;5067125;28;20029;-69
2022/03/29 03:55:24;;;;;;;19.10;8.35;;;;;;;;;;5067416;28;20020;-70
2022/03/29 03:57:51;;;;;;;19.55;9.52;;;;;;;;;;5058912;28;20051;-68
2022/03/29 04:00:17;;;;;;;37.80;19.52;;;;;;;;;;5071833;28;20413;-69
2022/03/29 04:02:43;;;;;;;47.75;19.15;;;;;;;;;;5054500;28;20435;-69
2022/03/29 04:05:12;;;;;;;46.30;24.85;;;;;;;;;;5070694;28;20033;-70
2022/03/29 04:07:38;;;;;;;63.80;31.50;;;;;;;;;;5064222;28;20044;-68
2022/03/29 04:10:05;;;;;;;62.72;33.78;;;;;;;;;;5069144;28;20492;-68
2022/03/29 04:12:32;;;;;;;51.08;30.27;;;;;;;;;;5064742;28;20032;-68
2022/03/29 04:14:58;;;;;;;47.90;27.20;;;;;;;;;;5066479;28;20063;-70
2022/03/29 04:17:24;;;;;;;53.72;26.02;;;;;;;;;;5065224;28;20028;-68
2022/03/29 04:19:51;;;;;;;48.90;22.50;;;;;;;;;;5065794;28;20540;-69
2022/03/29 04:22:18;;;;;;;48.75;22.90;;;;;;;;;;5065707;28;20021;-69
2022/03/29 04:24:48;;;;;;;50.45;22.02;;;;;;;;;;5068837;28;20387;-69
2022/03/29 04:27:14;;;;;;;46.83;19.95;;;;;;;;;;5061984;28;20449;-69
2022/03/29 04:29:40;;;;;;;51.05;21.85;;;;;;;;;;5066784;28;20097;-70
2022/03/29 04:32:07;;;;;;;54.08;21.60;;;;;;;;;;5059360;28;20120;-69
2022/03/29 04:34:34;;;;;;;42.70;21.02;;;;;;;;;;5062219;28;20373;-69
2022/03/29 04:37:00;;;;;;;54.47;26.77;;;;;;;;;;5061982;28;20035;-69
2022/03/29 04:39:27;;;;;;;55.08;29.80;;;;;;;;;;5062980;28;20025;-68
2022/03/29 04:41:53;;;;;;;61.67;30.13;;;;;;;;;;5059180;28;20028;-69
2022/03/29 04:44:20;;;;;;;55.55;31.17;;;;;;;;;;5061163;28;20033;-69
2022/03/29 04:46:46;;;;;;;50.90;28.50;;;;;;;;;;5055567;28;20031;-69
2022/03/29 04:49:13;;;;;;;48.97;24.67;;;;;;;;;;5063802;28;20119;-69
2022/03/29 04:51:39;;;;;;;37.67;22.42;;;;;;;;;;5062773;28;20089;-69
2022/03/29 04:54:05;;;;;;;35.88;19.58;;;;;;;;;;5064492;28;20112;-70
2022/03/29 04:56:33;;;;;;;32.83;20.30;;;;;;;;;;5064988;28;20078;-69
2022/03/29 04:58:59;;;;;;;39.88;17.45;;;;;;;;;;5058263;28;20109;-69
2022/03/29 05:01:25;;;;;;;28.08;15.48;;;;;;;;;;5059798;28;20070;-69
2022/03/29 05:03:52;;;;;;;31.73;14.65;;;;;;;;;;5067254;28;20107;-68
2022/03/29 05:06:18;;;;;;;30.42;13.93;;;;;;;;;;5058326;28;20028;-69
2022/03/29 05:08:44;;;;;;;25.67;13.07;;;;;;;;;;5065601;28;20101;-68
2022/03/29 05:11:11;;;;;;;23.40;12.65;;;;;;;;;;5065485;28;20032;-69
2022/03/29 05:13:37;;;;;;;27.60;13.50;;;;;;;;;;5064659;28;20496;-69
2022/03/29 05:16:04;;;;;;;25.95;13.52;;;;;;;;;;5062997;28;20396;-69
2022/03/29 05:18:30;;;;;;;24.90;12.85;;;;;;;;;;5066664;28;20052;-69
2022/03/29 05:20:56;;;;;;;22.95;12.82;;;;;;;;;;5061830;28;20020;-69
2022/03/29 05:23:23;;;;;;;27.60;13.57;;;;;;;;;;5061421;28;20634;-69
2022/03/29 05:25:50;;;;;;;30.35;13.50;;;;;;;;;;5063657;28;20051;-69
2022/03/29 05:28:16;;;;;;;28.45;13.25;;;;;;;;;;5066812;28;20050;-68
2022/03/29 05:30:42;;;;;;;30.17;12.80;;;;;;;;;;5064273;28;20020;-69
2022/03/29 05:33:15;;;;;;;25.02;12.05;;;;;;;;;;5065684;28;20112;-70
2022/03/29 05:35:41;;;;;;;22.95;10.98;;;;;;;;;;5064775;28;20032;-70
2022/03/29 05:38:08;;;;;;;19.80;10.10;;;;;;;;;;5065822;28;20439;-69
2022/03/29 05:40:34;;;;;;;27.20;9.75;;;;;;;;;;5063037;28;20027;-68
2022/03/29 05:43:00;;;;;;;23.20;10.80;;;;;;;;;;5062816;28;20057;-69
2022/03/29 05:45:29;;;;;;;24.52;10.73;;;;;;;;;;5061149;28;20492;-69
2022/03/29 05:50:40;;;;;;;27.90;12.27;;;;;;;;;;5058873;28;20040;-69
2022/03/29 05:53:07;;;;;;;24.48;10.75;;;;;;;;;;5056706;28;20110;-69
2022/03/29 05:55:34;;;;;;;27.42;12.32;;;;;;;;;;5059028;28;20032;-69
2022/03/29 05:58:00;;;;;;;26.52;11.88;;;;;;;;;;5060138;28;20366;-68
2022/03/29 06:00:29;;;;;;;17.52;9.65;;;;;;;;;;5065068;28;20035;-70
2022/03/29 06:02:56;;;;;;;26.80;11.93;;;;;;;;;;5066192;28;21352;-71
2022/03/29 06:05:22;;;;;;;29.40;11.52;;;;;;;;;;5063255;28;20480;-70
2022/03/29 06:07:50;;;;;;;23.92;9.48;;;;;;;;;;5059705;28;20526;-70
2022/03/29 06:10:16;;;;;;;23.10;8.48;;;;;;;;;;5064721;28;20033;-70
2022/03/29 06:12:46;;;;;;;17.77;7.78;;;;;;;;;;5065241;28;20557;-69
2022/03/29 06:15:13;;;;;;;19.60;6.57;;;;;;;;;;5068535;28;20419;-69
2022/03/29 06:17:40;;;;;;;19.65;6.38;;;;;;;;;;5071204;28;20079;-69
2022/03/29 06:20:10;;;;;;;15.43;6.72;;;;;;;;;;5063805;28;20045;-70
2022/03/29 06:22:41;;;;;;;10.15;5.55;;;;;;;;;;5071031;28;20023;-70
2022/03/29 06:25:08;;;;;;;11.07;4.88;;;;;;;;;;5062910;28;20407;-70
2022/03/29 06:27:34;;;;;;;11.70;6.38;;;;;;;;;;5068576;28;20126;-70
2022/03/29 06:30:01;;;;;;;11.15;5.15;;;;;;;;;;5069588;28;20495;-71
2022/03/29 06:32:27;;;;;;;12.70;5.75;;;;;;;;;;5060715;28;20086;-70
2022/03/29 06:34:53;;;;;;;14.35;5.15;;;;;;;;;;5065299;28;20028;-69
2022/03/29 06:37:20;;;;;;;10.45;4.95;;;;;;;;;;5071099;28;20124;-69
2022/03/29 06:39:46;;;;;;;16.85;6.80;;;;;;;;;;5070488;28;20389;-70
2022/03/29 06:42:18;;;;;;;15.02;8.00;;;;;;;;;;5059445;28;20028;-69
2022/03/29 06:44:44;;;;;;;18.70;8.15;;;;;;;;;;5069349;28;20048;-70
2022/03/29 06:47:11;;;;;;;20.13;11.05;;;;;;;;;;5067286;28;20028;-72
2022/03/29 06:49:37;;;;;;;18.77;8.43;;;;;;;;;;5071111;28;20111;-71
2022/03/29 06:52:04;;;;;;;13.18;6.88;;;;;;;;;;5066391;28;20060;-70
2022/03/29 06:54:31;;;;;;;15.65;6.63;;;;;;;;;;5066758;28;20031;-70
2022/03/29 06:56:57;;;;;;;18.20;8.10;;;;;;;;;;5056001;28;20392;-70
2022/03/29 06:59:23;;;;;;;24.70;12.55;;;;;;;;;;5065924;28;20646;-70
2022/03/29 07:01:50;;;;;;;20.85;9.35;;;;;;;;;;5069090;28;20032;-69
2022/03/29 07:04:16;;;;;;;19.33;9.25;;;;;;;;;;5060320;28;20020;-70
2022/03/29 07:06:45;;;;;;;29.83;12.82;;;;;;;;;;5075780;28;20028;-69
2022/03/29 07:11:57;;;;;;;23.25;9.93;;;;;;;;;;5068118;28;20032;-69
2022/03/29 07:14:23;;;;;;;17.90;9.48;;;;;;;;;;5067256;28;20040;-69
2022/03/29 07:16:53;;;;;;;19.73;8.95;;;;;;;;;;5060387;28;20296;-69
2022/03/29 07:19:19;;;;;;;14.30;7.45;;;;;;;;;;5068650;28;20055;-69
2022/03/29 07:21:46;;;;;;;17.48;8.05;;;;;;;;;;5060188;28;20021;-68
2022/03/29 07:24:12;;;;;;;14.43;8.10;;;;;;;;;;5069423;28;20028;-68
2022/03/29 07:26:40;;;;;;;21.15;8.05;;;;;;;;;;5069821;28;20032;-69
2022/03/29 07:29:07;;;;;;;22.08;9.07;;;;;;;;;;5060943;28;20029;-69
2022/03/29 07:31:34;;;;;;;23.45;11.43;;;;;;;;;;5067660;28;20074;-70
2022/03/29 07:34:00;;;;;;;22.40;10.45;;;;;;;;;;5066798;28;20029;-69
2022/03/29 07:36:26;;;;;;;70.68;14.65;;;;;;;;;;5062920;28;20111;-68
2022/03/29 07:38:53;;;;;;;74.68;16.17;;;;;;;;;;5069426;28;20017;-69
2022/03/29 07:41:19;;;;;;;55.90;17.00;;;;;;;;;;5066425;28;20102;-69
2022/03/29 07:43:46;;;;;;;64.53;14.95;;;;;;;;;;5068561;28;20093;-69
2022/03/29 07:46:13;;;;;;;69.13;18.45;;;;;;;;;;5065462;28;20102;-70
2022/03/29 07:48:40;;;;;;;62.72;17.42;;;;;;;;;;5067503;28;20024;-68
2022/03/29 07:51:06;;;;;;;52.95;17.45;;;;;;;;;;5065806;28;20069;-70
2022/03/29 07:53:33;;;;;;;57.38;18.42;;;;;;;;;;5061808;28;20423;-69
2022/03/29 07:55:59;;;;;;;56.00;17.70;;;;;;;;;;5062958;28;20508;-71
2022/03/29 07:58:26;;;;;;;46.80;19.38;;;;;;;;;;5070133;28;20021;-72
2022/03/29 08:00:53;;;;;;;63.55;16.60;;;;;;;;;;5069842;28;20028;-71
2022/03/29 08:03:21;;;;;;;48.97;13.75;;;;;;;;;;5070032;28;20512;-71
2022/03/29 08:05:48;;;;;;;46.65;12.00;;;;;;;;;;5067269;28;20028;-70
2022/03/29 08:08:15;;;;;;;40.08;11.02;;;;;;;;;;5067586;28;20120;-70
2022/03/29 08:10:42;;;;;;;41.47;12.43;;;;;;;;;;5068432;28;20043;-71
2022/03/29 08:13:10;;;;;;;46.47;12.98;;;;;;;;;;5068630;28;20436;-71
2022/03/29 08:15:37;;;;;;;40.65;13.20;;;;;;;;;;5064884;28;20033;-71
2022/03/29 08:18:03;;;;;;;45.42;12.25;;;;;;;;;;5066809;28;20039;-73
2022/03/29 08:20:30;;;;;;;44.60;11.30;;;;;;;;;;5069867;28;20027;-72
2022/03/29 08:23:00;;;;;;;36.30;9.07;;;;;;;;;;5068896;28;20609;-71
2022/03/29 08:25:26;;;;;;;28.95;9.73;;;;;;;;;;5065738;28;20078;-71
2022/03/29 08:27:55;;;;;;;25.52;9.65;;;;;;;;;;5065795;28;20457;-71
2022/03/29 08:30:21;;;;;;;30.45;8.93;;;;;;;;;;5059829;28;20041;-71
2022/03/29 08:32:54;;;;;;;21.63;7.43;;;;;;;;;;5051559;28;20437;-70
2022/03/29 08:35:26;;;;;;;21.95;7.10;;;;;;;;;;5054132;28;20033;-71
2022/03/29 08:37:52;;;;;;;16.30;8.10;;;;;;;;;;5061903;28;20558;-70
2022/03/29 08:40:26;;;;;;;15.07;7.53;;;;;;;;;;5061753;28;20108;-71
2022/03/29 08:42:54;;;;;;;17.17;7.00;;;;;;;;;;5057771;28;20613;-69
2022/03/29 08:45:22;;;;;;;13.98;5.90;;;;;;;;;;5054767;28;20032;-70
2022/03/29 08:47:48;;;;;;;14.75;7.07;;;;;;;;;;5048628;28;20032;-70
2022/03/29 08:50:15;;;;;;;17.30;6.95;;;;;;;;;;5052989;28;20040;-69
2022/03/29 08:52:47;;;;;;;11.57;5.75;;;;;;;;;;5057321;28;20028;-70
2022/03/29 08:55:13;;;;;;;16.05;6.90;;;;;;;;;;5058886;28;20059;-69
2022/03/29 08:57:42;;;;;;;16.20;7.55;;;;;;;;;;5059074;28;21731;-68
2022/03/29 09:00:09;;;;;;;14.95;7.38;;;;;;;;;;5062408;28;21259;-68
2022/03/29 09:02:39;;;;;;;13.82;7.55;;;;;;;;;;5063284;28;20074;-71
2022/03/29 09:05:15;;;;;;;18.08;8.75;;;;;;;;;;5060812;28;20021;-69
2022/03/29 09:07:52;;;;;;;20.27;10.63;;;;;;;;;;5062025;28;20029;-69
2022/03/29 09:10:19;;;;;;;18.52;11.48;;;;;;;;;;5064813;28;20024;-69
2022/03/29 09:12:46;;;;;;;19.08;10.52;;;;;;;;;;5063379;28;20388;-69
2022/03/29 09:15:16;;;;;;;14.35;9.38;;;;;;;;;;5071061;28;20040;-70
2022/03/29 09:17:50;;;;;;;17.92;10.15;;;;;;;;;;5069343;28;20033;-68
2022/03/29 09:20:21;;;;;;;16.48;12.13;;;;;;;;;;5067044;28;20028;-71
2022/03/29 09:22:55;;;;;;;19.40;12.45;;;;;;;;;;5061985;28;20052;-70
2022/03/29 09:25:23;;;;;;;17.10;13.63;;;;;;;;;;5066125;28;20083;-69
2022/03/29 09:27:49;;;;;;;20.50;15.32;;;;;;;;;;5067971;28;20036;-70
2022/03/29 09:30:16;;;;;;;18.77;13.57;;;;;;;;;;5069734;28;20060;-69
2022/03/29 09:33:05;;;;;;;20.05;13.88;;;;;;;;;;5070849;28;20035;-70
2022/03/29 09:35:32;;;;;;;18.85;13.75;;;;;;;;;;5066655;28;20036;-71
2022/03/29 09:38:00;;;;;;;15.48;10.23;;;;;;;;;;5057701;28;20040;-70
2022/03/29 09:40:34;;;;;;;12.98;9.38;;;;;;;;;;5064091;28;20400;-70
2022/03/29 09:43:06;;;;;;;14.40;10.23;;;;;;;;;;5066767;28;20399;-70
2022/03/29 09:45:39;;;;;;;19.90;12.30;;;;;;;;;;5070801;28;20043;-70
2022/03/29 09:48:24;;;;;;;18.33;12.65;;;;;;;;;;5069962;28;20476;-69
2022/03/29 09:50:53;;;;;;;19.10;13.20;;;;;;;;;;5071154;28;20032;-70
2022/03/29 09:53:36;;;;;;;17.45;11.32;;;;;;;;;;5067859;28;20028;-68
2022/03/29 09:56:03;;;;;;;8.88;5.30;;;;;;;;;;5070621;28;20036;-69
2022/03/29 09:58:30;;;;;;;9.68;5.15;;;;;;;;;;5071218;28;20026;-70
2022/03/29 10:00:59;;;;;;;16.58;6.28;;;;;;;;;;5063807;28;20047;-71
2022/03/29 10:03:28;;;;;;;8.73;5.80;;;;;;;;;;5067857;28;20107;-70
2022/03/29 10:06:01;;;;;;;10.50;6.90;;;;;;;;;;5071862;28;20029;-69
2022/03/29 10:11:27;;;;;;;13.45;9.75;;;;;;;;;;5059223;28;20047;-70
2022/03/29 10:13:53;;;;;;;11.55;9.13;;;;;;;;;;5066406;28;20033;-70
2022/03/29 10:16:20;;;;;;;12.95;9.93;;;;;;;;;;5069888;28;20020;-69
2022/03/29 10:18:48;;;;;;;14.82;10.65;;;;;;;;;;5073425;28;20108;-72
2022/03/29 10:21:16;;;;;;;11.80;9.20;;;;;;;;;;5070087;28;20427;-68
2022/03/29 10:23:46;;;;;;;12.63;8.80;;;;;;;;;;5065034;28;20025;-70
2022/03/29 10:26:21;;;;;;;12.10;9.07;;;;;;;;;;5068262;28;20029;-70
2022/03/29 10:28:48;;;;;;;14.65;10.75;;;;;;;;;;5068969;28;20032;-72
2022/03/29 10:31:27;;;;;;;11.75;8.32;;;;;;;;;;5070743;28;20833;-72
2022/03/29 10:34:12;;;;;;;10.88;8.00;;;;;;;;;;5069160;28;20086;-72
2022/03/29 10:36:57;;;;;;;11.30;7.75;;;;;;;;;;5064988;28;20415;-71
2022/03/29 10:39:27;;;;;;;16.15;10.52;;;;;;;;;;5067388;28;20574;-70
2022/03/29 10:41:53;;;;;;;19.67;12.02;;;;;;;;;;5064662;28;20551;-71
2022/03/29 10:44:19;;;;;;;21.13;14.25;;;;;;;;;;5068558;28;20491;-71
2022/03/29 10:46:48;;;;;;;17.73;12.88;;;;;;;;;;5065459;28;20029;-72
2022/03/29 10:49:20;;;;;;;20.33;13.80;;;;;;;;;;5068489;28;20040;-72
2022/03/29 10:51:49;;;;;;;15.02;9.27;;;;;;;;;;5062414;28;20039;-72
2022/03/29 10:54:25;;;;;;;11.95;9.45;;;;;;;;;;5059534;28;20033;-71
2022/03/29 10:57:03;;;;;;;11.95;8.65;;;;;;;;;;5062990;28;20496;-72
2022/03/29 10:59:36;;;;;;;15.50;11.90;;;;;;;;;;5064988;28;20446;-72
2022/03/29 11:02:19;;;;;;;14.68;10.40;;;;;;;;;;5051614;28;20029;-72
2022/03/29 11:05:04;;;;;;;15.30;12.07;;;;;;;;;;5068689;28;20024;-72
2022/03/29 11:07:33;;;;;;;16.15;10.88;;;;;;;;;;5062920;28;20036;-71
2022/03/29 11:10:09;;;;;;;18.80;12.57;;;;;;;;;;5064167;28;20677;-72
2022/03/29 11:12:54;;;;;;;16.95;13.27;;;;;;;;;;5070693;28;20024;-71
2022/03/29 11:15:37;;;;;;;20.90;15.73;;;;;;;;;;5060743;28;20063;-71
2022/03/29 11:18:25;;;;;;;23.75;16.55;;;;;;;;;;5070477;28;20044;-71
2022/03/29 11:21:02;;;;;;;25.95;20.30;;;;;;;;;;5061604;28;20477;-71
2022/03/29 11:23:33;;;;;;;29.52;22.13;;;;;;;;;;5066888;28;20032;-70
2022/03/29 11:26:05;;;;;;;33.67;25.42;;;;;;;;;;5075805;28;20107;-71
2022/03/29 11:28:32;;;;;;;33.30;25.92;;;;;;;;;;5063146;28;20444;-72
2022/03/29 11:30:58;;;;;;;37.53;28.30;;;;;;;;;;5063756;28;20067;-72
2022/03/29 11:33:32;;;;;;;37.17;27.23;;;;;;;;;;5057663;28;20035;-70
2022/03/29 11:35:59;;;;;;;35.22;24.38;;;;;;;;;;5065880;28;20028;-71
2022/03/29 11:38:25;;;;;;;27.10;20.15;;;;;;;;;;5062461;28;20033;-72
2022/03/29 11:40:51;;;;;;;28.05;16.75;;;;;;;;;;5070947;28;20458;-71
2022/03/29 11:43:22;;;;;;;25.75;17.67;;;;;;;;;;5068519;28;20039;-70
2022/03/29 11:45:49;;;;;;;24.83;15.57;;;;;;;;;;5065418;28;20028;-71
2022/03/29 11:48:20;;;;;;;22.75;13.65;;;;;;;;;;5055751;28;20465;-71
2022/03/29 11:50:54;;;;;;;23.10;14.63;;;;;;;;;;5041166;28;20424;-70
2022/03/29 11:53:21;;;;;;;22.52;15.63;;;;;;;;;;5064182;28;20536;-68
2022/03/29 11:56:01;;;;;;;24.73;15.95;;;;;;;;;;5057143;28;20036;-69
2022/03/29 11:58:44;;;;;;;22.55;15.30;;;;;;;;;;5063711;28;20115;-69
2022/03/29 12:01:12;;;;;;;21.17;13.35;;;;;;;;;;5053335;28;20041;-69
2022/03/29 12:03:40;;;;;;;19.83;12.85;;;;;;;;;;5068093;28;20121;-69
2022/03/29 12:06:13;;;;;;;20.08;13.27;;;;;;;;;;5062571;28;20020;-70
2022/03/29 12:08:47;;;;;;;17.65;10.88;;;;;;;;;;5065349;28;20029;-71
2022/03/29 12:11:15;;;;;;;17.52;11.60;;;;;;;;;;5056219;28;20509;-71
2022/03/29 12:13:42;;;;;;;15.38;11.07;;;;;;;;;;5052876;28;20052;-70
2022/03/29 12:16:35;;;;;;;15.48;10.57;;;;;;;;;;5044434;28;20468;-70
2022/03/29 12:19:03;;;;;;;15.73;10.38;;;;;;;;;;5043043;28;20048;-70
2022/03/29 12:21:29;;;;;;;14.73;9.70;;;;;;;;;;5034774;28;20029;-70
2022/03/29 12:24:00;;;;;;;17.40;11.02;;;;;;;;;;5027945;28;20091;-72
2022/03/29 12:26:27;;;;;;;16.52;11.10;;;;;;;;;;5044076;28;20029;-70
2022/03/29 12:28:53;;;;;;;21.30;12.52;;;;;;;;;;5045678;28;20024;-70
2022/03/29 12:31:20;;;;;;;24.50;13.10;;;;;;;;;;5043638;28;20037;-72
2022/03/29 12:33:47;;;;;;;18.30;12.55;;;;;;;;;;5029872;28;20116;-70
2022/03/29 12:36:15;;;;;;;20.73;13.55;;;;;;;;;;5030853;28;20033;-70
2022/03/29 12:38:42;;;;;;;23.30;13.75;;;;;;;;;;5050471;28;20024;-70
2022/03/29 12:41:11;;;;;;;24.75;15.13;;;;;;;;;;5039911;28;20033;-70
2022/03/29 12:43:37;;;;;;;22.33;12.40;;;;;;;;;;5035488;28;20389;-70
2022/03/29 12:46:09;;;;;;;20.60;14.02;;;;;;;;;;5038767;28;20029;-70
2022/03/29 12:48:39;;;;;;;22.00;13.68;;;;;;;;;;5051342;28;20489;-70
2022/03/29 12:51:07;;;;;;;22.60;14.02;;;;;;;;;;5047141;28;20393;-70
2022/03/29 12:53:34;;;;;;;18.20;13.10;;;;;;;;;;5036760;28;20032;-71
2022/03/29 12:56:04;;;;;;;21.02;14.32;;;;;;;;;;5015557;28;20037;-71
2022/03/29 12:58:38;;;;;;;28.77;17.27;;;;;;;;;;5065056;28;20021;-71
2022/03/29 13:01:07;;;;;;;30.13;18.70;;;;;;;;;;5016745;28;20037;-71
2022/03/29 13:03:38;;;;;;;29.08;19.10;;;;;;;;;;5014390;28;20367;-71
2022/03/29 13:06:04;;;;;;;29.45;18.23;;;;;;;;;;5012648;28;20060;-73
2022/03/29 13:08:31;;;;;;;27.73;18.25;;;;;;;;;;5049704;28;20029;-72
2022/03/29 13:10:57;;;;;;;32.13;17.55;;;;;;;;;;5030088;28;20033;-71
2022/03/29 13:13:28;;;;;;;23.40;16.65;;;;;;;;;;5054259;28;20048;-72
2022/03/29 13:16:05;;;;;;;37.58;15.85;;;;;;;;;;5053893;28;20044;-71
2022/03/29 13:18:51;;;;;;;30.88;17.02;;;;;;;;;;5050631;28;20035;-70
2022/03/29 13:21:20;;;;;;;32.47;20.05;;;;;;;;;;5062764;28;20082;-71
2022/03/29 13:23:54;;;;;;;31.77;20.63;;;;;;;;;;5050403;28;20519;-71
2022/03/29 13:26:21;;;;;;;44.08;26.17;;;;;;;;;;5052740;28;20116;-69
2022/03/29 13:28:48;;;;;;;34.10;22.77;;;;;;;;;;5049529;28;20021;-71
2022/03/29 13:31:16;;;;;;;37.38;24.15;;;;;;;;;;5069956;28;20110;-69
2022/03/29 13:33:46;;;;;;;38.63;24.05;;;;;;;;;;5074412;28;20051;-71
2022/03/29 13:36:14;;;;;;;36.75;24.42;;;;;;;;;;5083562;28;20024;-70
2022/03/29 13:38:41;;;;;;;52.45;25.58;;;;;;;;;;5075375;28;20029;-71
2022/03/29 13:41:08;;;;;;;52.78;24.55;;;;;;;;;;5052557;28;20024;-71
2022/03/29 13:43:35;;;;;;;44.83;22.50;;;;;;;;;;5064832;28;20039;-71
2022/03/29 13:46:01;;;;;;;40.53;21.65;;;;;;;;;;5084156;28;20506;-70
2022/03/29 13:48:31;;;;;;;47.50;22.40;;;;;;;;;;5070839;28;20475;-70
2022/03/29 13:50:57;;;;;;;53.33;24.50;;;;;;;;;;5049077;28;20039;-70
2022/03/29 13:53:24;;;;;;;53.88;22.40;;;;;;;;;;5053086;28;20054;-70
2022/03/29 13:55:51;;;;;;;50.03;22.75;;;;;;;;;;5051642;28;20032;-70
2022/03/29 13:58:17;;;;;;;43.85;21.85;;;;;;;;;;5050778;28;20029;-70
2022/03/29 14:00:44;;;;;;;47.28;21.50;;;;;;;;;;5052428;28;20431;-70
2022/03/29 14:03:10;;;;;;;49.00;20.95;;;;;;;;;;5050989;28;20024;-70
2022/03/29 14:05:40;;;;;;;1.08;1.08;;;;;;;;;;5056096;28;20052;-70
2022/03/29 14:08:07;;;;;;;0.00;0.00;;;;;;;;;;5051750;28;20056;-70
2022/03/29 14:10:34;;;;;;;0.63;0.63;;;;;;;;;;5071844;28;20028;-70
2022/03/29 14:13:02;;;;;;;1.52;1.42;;;;;;;;;;5055732;28;20551;-69
2022/03/29 14:15:29;;;;;;;0.47;0.47;;;;;;;;;;5034991;28;20065;-69
2022/03/29 14:17:55;;;;;;;0.00;0.00;;;;;;;;;;5047488;28;20052;-70
2022/03/29 14:20:22;;;;;;;0.05;0.05;;;;;;;;;;5066617;28;20542;-69
2022/03/29 14:22:48;;;;;;;0.43;0.43;;;;;;;;;;5068606;28;20024;-69
2022/03/29 14:25:16;;;;;;;0.00;0.00;;;;;;;;;;5080191;28;20035;-68
2022/03/29 14:27:42;;;;;;;0.68;0.68;;;;;;;;;;5074290;28;20088;-68
2022/03/29 14:30:09;;;;;;;2.95;2.15;;;;;;;;;;5074134;28;20468;-68
2022/03/29 14:32:36;;;;;;;3.33;3.00;;;;;;;;;;5055568;28;20067;-71
2022/03/29 14:35:05;;;;;;;0.55;0.55;;;;;;;;;;5074544;28;20124;-70
2022/03/29 14:37:38;;;;;;;0.28;0.28;;;;;;;;;;5071836;28;20028;-69
2022/03/29 14:40:08;;;;;;;2.85;2.15;;;;;;;;;;5070184;28;20029;-70